Dutch
Home     News     Corporate     Events & Tours     Flight ops     Crew centre      
My transavia virtual    Join us    Last logs    Who is flying    Software    Training    VRTS     
 

view flightdata
view flightplan
view OFP
view flightlog



flightdata:
pilot: Theo Ben Salem
flight: TVF7050
from: LFPO (Paris Paris Orly)
to: LFBT (Tarbes Tarbes Lourdes Pyrenees)
date: 02-12-2015
departure: 22:16z
arrival: 00:03z
duration: 1:46
aircraft: B738 (FGZHO)
distance: 364 NM
touchdown: -225 ft/m @ 113 KIAS



flightplan:
-(FPL-TVF7050-IS
-B738/M-SDFGHIRWXY/LB1
-LFPO2229
-N0444F350 ERIXU UN860 AGN
-LFBT0119 LFBZ
-EET/LECM0055 PBN/A1B1D1O1S1 DOF/151201 REG/FGZHO SEL/AGCH CODE/4841A5 OPR/TVF RVR/200 RMK/TCAS CALLSIGN FRANCE SOLEIL)



operational flightplan (OFP):
NO LOADSHEET AVAILABLE

WEATHER BRIEFING - GENERATED 01 DEC 2015 22:14 UTC
--------------------------------------------------------------------------------

LFPO LFBT LFBZ

--------------------------------------------------------------------------------
ORIGIN: LFPO (PARIS)
--------------------------------------------------------------------------------
LFPO 012130Z 24004KT 9999 OVC040 11/06 Q1030 NOSIG

LFPO 011700Z 0118/0224 21006KT 9999 BKN035 PROB30
      TEMPO 0123/0203 0500 BCFG
      BECMG 0203/0206 4000 BR BKN004 PROB30
      TEMPO 0203/0211 0300 FG OVC001
      BECMG 0212/0215 6000 NSW BKN006 PROB40
      TEMPO 0221/0224 3000 BR PROB30
      TEMPO 0222/0224 0500 BCFG


--------------------------------------------------------------------------------
DESTINATION: LFBT (TARBES)
--------------------------------------------------------------------------------
LFBT 012130Z AUTO 17002KT 6000 NSC 00/M00 Q1028

LFBT 011700Z 0118/0218 VRB02KT CAVOK=  LFBZ 011700Z 0118/0218 10009KT CAVOK FM020600 21004KT CAVOK FM021200 VRB02KT CAVOK


--------------------------------------------------------------------------------
ALTERNATE: LFBZ (BIARRITZ)
--------------------------------------------------------------------------------
LFBZ 012130Z AUTO VRB02KT CAVOK 06/06 Q1029

LFBZ 011700Z 0118/0218 10009KT CAVOK FM020600 21004KT CAVOK FM021200 VRB02KT CAVOK


NOTAM BRIEFING - GENERATED 01 DEC 2015 22:14 UTC
--------------------------------------------------------------------------------

LFPO LFBT LFBZ

--------------------------------------------------------------------------------
GLOBAL TRANSAVIA.COM VIRTUAL NOTAMS
--------------------------------------------------------------------------------
REF:NIL PLEASE CONTACT OPERATIONS IN CASE OF STRUCTURAL FLIGHTPLAN ERRORS ON OPS@TRANSAVIA-VIRTUAL.COM
VALID:UFN

REF:NIL
PLEASE CHECK ACARS EVERY 10 MINUTES WHEN FLYING WITH SOUND OFF. AN NEW ACARS MESSAGE PRODUCE A SOUND SIGNAL UNTILL ITS READ. FLOWCONTROL DON'T RECEIVE MUCH REACTION ON OUTGOING ACARS MESSAGES ACCORDING FLIGHTSTATUS.
SOURCE: SPL/HV/OCC/
END VALID: UFN

REF:NIL
SUMMERTOUR 2014 RELEASED. SEE WEBSITE / TOURMANAGER FOR MORE INFORMATION.
WINTERTOUR 2013/2014 closed
END VALID: UFN

REF:NIL
PLEASE CONTACT FLOWCONTROL IN CASE OF PROBLEMS WITH ROUTINGS
SOURCE: SPL/HV/OCC/
END VALID: UFN

REF:NIL
IN CASE OF ENGINE-OUT FLY V2 OR V2 20 MAX. UNTIL ABOVE MSA.
LEVEL-OFF AT AN ALTITUDE ROUNDED OFF TO THE FIRST 1000 FT OF THE HIGHEST MSA.
E.G: MSA EHAM; 1.7 AND 2.3 LEVEL-OFF 3000 FT. AFTER LANDING MAKE A REP TO OCC ON 131.975
SOURCE:SPL/HV/OCC
END VALID:UFN

REF:NIL
COST INDEX 11, DIVERT FROM FMS OUTPUT SPEEDS ON CAPTAINS DISCRETION
WHEN NOT CORRESPONDING WITH ATS ROUTES OR NATIONAL REGULATIONS.
E.G.: 280 KIAS STAR EHAM.
SOURCE:SPL/HV/OCC
END VALID:UFN



flightlog:
Pilot : Theo Ben Salem
Flight: TVF7050
From  : LFPO Paris
To    : LFBT Tarbes

[FLIGHTLOG] 1.5.0
01-12-2015 22:16:20z, logging started
01-12-2015 22:31:17z, pos report: 007 KIAS, 00 300 ft, heading 345, winds 057 @ 23 kts
01-12-2015 22:46:19z, pos report: 007 KIAS, 00 300 ft, heading 345, winds 057 @ 23 kts
01-12-2015 22:50:05z, flaps set to 25%
01-12-2015 22:50:06z, flaps set to 38%
01-12-2015 23:01:19z, pos report: 000 KIAS, 00 300 ft, heading 241, winds 057 @ 23 kts
01-12-2015 23:01:59z, take-off at 174 KIAS
01-12-2015 23:01:59z, pos report: 174 KIAS, 00 306 ft, heading 241, winds 057 @ 23 kts
01-12-2015 23:02:00z, flying online @ IVAO (TVF7050)
01-12-2015 23:02:00z, position: LFPO - Paris
01-12-2015 23:02:13z, retracted gear at 217 KIAS and 304 ft AGL
01-12-2015 23:02:34z, flaps set to 0%
01-12-2015 23:16:20z, pos report: 317 KIAS, 25 697 ft, heading 191, winds 064 @ 17 kts
01-12-2015 23:31:21z, pos report: 328 KIAS, 28 963 ft, heading 191, winds 038 @ 19 kts
01-12-2015 23:33:55z, overspeeding
01-12-2015 23:34:24z, recovered from overspeed
01-12-2015 23:39:23z, overspeeding
01-12-2015 23:39:36z, recovered from overspeed
01-12-2015 23:46:22z, pos report: 229 KIAS, 10 023 ft, heading 222, winds 095 @ 08 kts
01-12-2015 23:50:30z, below glideslope
01-12-2015 23:53:32z, below glideslope
01-12-2015 23:53:47z, intercepted localizer
01-12-2015 23:53:56z, lost localizer
01-12-2015 23:54:13z, on glideslope
01-12-2015 23:54:22z, flaps set to 13%
01-12-2015 23:54:25z, flaps set to 25%
01-12-2015 23:54:37z, intercepted localizer
01-12-2015 23:55:01z, lowered gear at 178 KIAS and 1309 ft AGL
01-12-2015 23:56:19z, touchdown: -225ft/m at 113 KIAS
01-12-2015 23:56:19z, pos report: 113 KIAS, 01 272 ft, heading 195, winds 057 @ 17 kts
01-12-2015 23:56:20z, flying online @ IVAO (TVF7050)
01-12-2015 23:56:20z, position: LFBT - Tarbes
01-12-2015 23:56:22z, deployed spoilers
01-12-2015 23:56:36z, retracted spoilers
01-12-2015 23:57:30z, flaps set to 87%
01-12-2015 23:57:31z, flaps set to 50%
01-12-2015 23:57:32z, flaps set to 0%
02-12-2015 00:01:23z, pos report: 022 KIAS, 01 269 ft, heading 030, winds 057 @ 17 kts
02-12-2015 00:03:24z, parking brake set
02-12-2015 00:07:06z, logging ended

©2009-2020, transavia virtual. All rights reserved. This website is only meant for simulation purposes.
This website is not owned by transavia, nor is transavia responsible for the content of this website.